sensor_id;sensor_type;location;lat;lon;timestamp;P1;durP1;ratioP1;P2;durP2;ratioP2
6388;SDS011;3227;42.654;23.360;2024-01-30T00:00:00;8.70;;;4.40;;
6388;SDS011;3227;42.654;23.360;2024-01-30T00:02:28;7.70;;;4.43;;
6388;SDS011;3227;42.654;23.360;2024-01-30T00:04:54;7.50;;;4.30;;
6388;SDS011;3227;42.654;23.360;2024-01-30T00:07:23;9.03;;;4.80;;
6388;SDS011;3227;42.654;23.360;2024-01-30T00:09:49;10.00;;;4.60;;
6388;SDS011;3227;42.654;23.360;2024-01-30T00:12:16;9.53;;;4.93;;
6388;SDS011;3227;42.654;23.360;2024-01-30T00:14:43;7.53;;;4.53;;
6388;SDS011;3227;42.654;23.360;2024-01-30T00:17:10;8.57;;;4.67;;
6388;SDS011;3227;42.654;23.360;2024-01-30T00:19:36;6.73;;;4.10;;
6388;SDS011;3227;42.654;23.360;2024-01-30T00:22:03;9.80;;;4.37;;
6388;SDS011;3227;42.654;23.360;2024-01-30T00:24:31;8.03;;;4.37;;
6388;SDS011;3227;42.654;23.360;2024-01-30T00:26:58;7.20;;;4.20;;
6388;SDS011;3227;42.654;23.360;2024-01-30T00:29:25;7.80;;;4.60;;
6388;SDS011;3227;42.654;23.360;2024-01-30T00:31:55;7.27;;;4.40;;
6388;SDS011;3227;42.654;23.360;2024-01-30T00:34:22;10.17;;;4.77;;
6388;SDS011;3227;42.654;23.360;2024-01-30T00:36:48;8.33;;;4.80;;
6388;SDS011;3227;42.654;23.360;2024-01-30T00:39:15;8.97;;;4.80;;
6388;SDS011;3227;42.654;23.360;2024-01-30T00:41:45;9.17;;;5.00;;
6388;SDS011;3227;42.654;23.360;2024-01-30T00:44:11;10.27;;;5.13;;
6388;SDS011;3227;42.654;23.360;2024-01-30T00:46:38;8.23;;;4.63;;
6388;SDS011;3227;42.654;23.360;2024-01-30T00:49:05;10.73;;;5.67;;
6388;SDS011;3227;42.654;23.360;2024-01-30T00:51:31;11.43;;;5.70;;
6388;SDS011;3227;42.654;23.360;2024-01-30T00:54:08;10.83;;;5.50;;
6388;SDS011;3227;42.654;23.360;2024-01-30T00:56:35;10.80;;;5.50;;
6388;SDS011;3227;42.654;23.360;2024-01-30T00:59:03;15.07;;;5.60;;
6388;SDS011;3227;42.654;23.360;2024-01-30T01:01:30;25.20;;;10.70;;
6388;SDS011;3227;42.654;23.360;2024-01-30T01:03:57;24.30;;;10.17;;
6388;SDS011;3227;42.654;23.360;2024-01-30T01:06:23;17.27;;;8.37;;
6388;SDS011;3227;42.654;23.360;2024-01-30T01:08:50;15.70;;;8.57;;
6388;SDS011;3227;42.654;23.360;2024-01-30T01:11:17;17.93;;;8.93;;
6388;SDS011;3227;42.654;23.360;2024-01-30T01:13:44;11.13;;;5.83;;
6388;SDS011;3227;42.654;23.360;2024-01-30T01:16:12;9.97;;;5.27;;
6388;SDS011;3227;42.654;23.360;2024-01-30T01:18:38;10.63;;;5.87;;
6388;SDS011;3227;42.654;23.360;2024-01-30T01:21:05;9.60;;;5.27;;
6388;SDS011;3227;42.654;23.360;2024-01-30T01:23:32;11.73;;;6.10;;
6388;SDS011;3227;42.654;23.360;2024-01-30T01:25:59;8.23;;;4.70;;
6388;SDS011;3227;42.654;23.360;2024-01-30T01:28:26;12.17;;;5.50;;
6388;SDS011;3227;42.654;23.360;2024-01-30T01:30:53;8.37;;;4.37;;
6388;SDS011;3227;42.654;23.360;2024-01-30T01:33:25;8.37;;;4.33;;
6388;SDS011;3227;42.654;23.360;2024-01-30T01:35:52;9.77;;;4.70;;
6388;SDS011;3227;42.654;23.360;2024-01-30T01:38:18;9.67;;;4.40;;
6388;SDS011;3227;42.654;23.360;2024-01-30T01:40:45;7.40;;;3.90;;
6388;SDS011;3227;42.654;23.360;2024-01-30T01:43:12;7.77;;;4.60;;
6388;SDS011;3227;42.654;23.360;2024-01-30T01:45:39;7.90;;;4.90;;
6388;SDS011;3227;42.654;23.360;2024-01-30T01:48:06;9.40;;;4.40;;
6388;SDS011;3227;42.654;23.360;2024-01-30T01:50:34;8.77;;;4.87;;
6388;SDS011;3227;42.654;23.360;2024-01-30T01:53:03;7.53;;;4.53;;
6388;SDS011;3227;42.654;23.360;2024-01-30T01:55:30;7.57;;;4.37;;
6388;SDS011;3227;42.654;23.360;2024-01-30T01:57:57;7.67;;;3.90;;
6388;SDS011;3227;42.654;23.360;2024-01-30T02:00:24;6.83;;;3.77;;
6388;SDS011;3227;42.654;23.360;2024-01-30T02:02:51;6.63;;;4.00;;
6388;SDS011;3227;42.654;23.360;2024-01-30T02:05:19;6.77;;;3.47;;
6388;SDS011;3227;42.654;23.360;2024-01-30T02:07:47;7.27;;;4.00;;
6388;SDS011;3227;42.654;23.360;2024-01-30T02:10:14;7.87;;;4.00;;
6388;SDS011;3227;42.654;23.360;2024-01-30T02:12:41;9.97;;;4.23;;
6388;SDS011;3227;42.654;23.360;2024-01-30T02:15:08;8.10;;;4.47;;
6388;SDS011;3227;42.654;23.360;2024-01-30T02:17:35;8.10;;;4.50;;
6388;SDS011;3227;42.654;23.360;2024-01-30T02:20:01;7.17;;;4.03;;
6388;SDS011;3227;42.654;23.360;2024-01-30T02:22:31;6.77;;;3.87;;
6388;SDS011;3227;42.654;23.360;2024-01-30T02:25:00;8.73;;;4.80;;
6388;SDS011;3227;42.654;23.360;2024-01-30T02:27:27;10.40;;;4.73;;
6388;SDS011;3227;42.654;23.360;2024-01-30T02:29:54;7.30;;;3.87;;
6388;SDS011;3227;42.654;23.360;2024-01-30T02:32:21;10.50;;;4.30;;
6388;SDS011;3227;42.654;23.360;2024-01-30T02:34:48;12.27;;;5.87;;
6388;SDS011;3227;42.654;23.360;2024-01-30T02:37:14;10.33;;;5.33;;
6388;SDS011;3227;42.654;23.360;2024-01-30T02:39:44;8.17;;;4.20;;
6388;SDS011;3227;42.654;23.360;2024-01-30T02:42:11;6.33;;;3.40;;
6388;SDS011;3227;42.654;23.360;2024-01-30T02:44:38;8.07;;;3.50;;
6388;SDS011;3227;42.654;23.360;2024-01-30T02:47:04;6.20;;;3.40;;
6388;SDS011;3227;42.654;23.360;2024-01-30T02:49:31;7.13;;;3.40;;
6388;SDS011;3227;42.654;23.360;2024-01-30T02:51:58;7.00;;;3.80;;
6388;SDS011;3227;42.654;23.360;2024-01-30T02:54:25;6.37;;;3.43;;
6388;SDS011;3227;42.654;23.360;2024-01-30T02:56:53;6.57;;;3.83;;
6388;SDS011;3227;42.654;23.360;2024-01-30T02:59:20;6.93;;;3.70;;
6388;SDS011;3227;42.654;23.360;2024-01-30T03:01:46;6.83;;;3.63;;
6388;SDS011;3227;42.654;23.360;2024-01-30T03:04:13;7.13;;;4.00;;
6388;SDS011;3227;42.654;23.360;2024-01-30T03:06:44;7.23;;;4.00;;
6388;SDS011;3227;42.654;23.360;2024-01-30T03:09:12;6.47;;;4.00;;
6388;SDS011;3227;42.654;23.360;2024-01-30T03:11:39;6.87;;;3.53;;
6388;SDS011;3227;42.654;23.360;2024-01-30T03:14:07;7.53;;;4.07;;
6388;SDS011;3227;42.654;23.360;2024-01-30T03:16:36;5.10;;;3.07;;
6388;SDS011;3227;42.654;23.360;2024-01-30T03:19:03;5.93;;;3.37;;
6388;SDS011;3227;42.654;23.360;2024-01-30T03:21:30;7.50;;;3.20;;
6388;SDS011;3227;42.654;23.360;2024-01-30T03:23:57;5.30;;;3.20;;
6388;SDS011;3227;42.654;23.360;2024-01-30T03:26:24;6.07;;;3.17;;
6388;SDS011;3227;42.654;23.360;2024-01-30T03:28:51;6.03;;;3.30;;
6388;SDS011;3227;42.654;23.360;2024-01-30T03:31:19;5.83;;;3.43;;
6388;SDS011;3227;42.654;23.360;2024-01-30T03:33:46;6.40;;;3.33;;
6388;SDS011;3227;42.654;23.360;2024-01-30T03:36:12;5.70;;;3.30;;
6388;SDS011;3227;42.654;23.360;2024-01-30T03:38:41;7.37;;;3.80;;
6388;SDS011;3227;42.654;23.360;2024-01-30T03:41:08;6.30;;;3.20;;
6388;SDS011;3227;42.654;23.360;2024-01-30T03:43:35;6.13;;;3.40;;
6388;SDS011;3227;42.654;23.360;2024-01-30T03:46:02;5.03;;;2.90;;
6388;SDS011;3227;42.654;23.360;2024-01-30T03:48:30;6.73;;;3.50;;
6388;SDS011;3227;42.654;23.360;2024-01-30T03:50:57;5.23;;;2.93;;
6388;SDS011;3227;42.654;23.360;2024-01-30T03:53:24;4.70;;;2.87;;
6388;SDS011;3227;42.654;23.360;2024-01-30T03:55:51;5.23;;;3.00;;
6388;SDS011;3227;42.654;23.360;2024-01-30T03:58:18;4.27;;;2.63;;
6388;SDS011;3227;42.654;23.360;2024-01-30T04:00:44;5.87;;;3.10;;
6388;SDS011;3227;42.654;23.360;2024-01-30T04:03:11;5.20;;;3.00;;
6388;SDS011;3227;42.654;23.360;2024-01-30T04:05:39;6.50;;;3.50;;
6388;SDS011;3227;42.654;23.360;2024-01-30T04:08:07;6.23;;;3.50;;
6388;SDS011;3227;42.654;23.360;2024-01-30T04:10:34;6.83;;;3.53;;
6388;SDS011;3227;42.654;23.360;2024-01-30T04:13:00;6.43;;;3.63;;
6388;SDS011;3227;42.654;23.360;2024-01-30T04:15:27;6.73;;;4.10;;
6388;SDS011;3227;42.654;23.360;2024-01-30T04:17:57;7.80;;;4.23;;
6388;SDS011;3227;42.654;23.360;2024-01-30T04:20:23;7.13;;;4.07;;
6388;SDS011;3227;42.654;23.360;2024-01-30T04:22:52;8.00;;;4.80;;
6388;SDS011;3227;42.654;23.360;2024-01-30T04:25:19;9.73;;;5.27;;
6388;SDS011;3227;42.654;23.360;2024-01-30T04:27:45;10.27;;;5.40;;
6388;SDS011;3227;42.654;23.360;2024-01-30T04:30:12;11.23;;;4.80;;
6388;SDS011;3227;42.654;23.360;2024-01-30T04:32:39;6.77;;;3.87;;
6388;SDS011;3227;42.654;23.360;2024-01-30T04:35:06;6.90;;;3.80;;
6388;SDS011;3227;42.654;23.360;2024-01-30T04:37:33;8.07;;;3.90;;
6388;SDS011;3227;42.654;23.360;2024-01-30T04:40:01;6.60;;;3.60;;
6388;SDS011;3227;42.654;23.360;2024-01-30T04:42:28;7.57;;;3.57;;
6388;SDS011;3227;42.654;23.360;2024-01-30T04:44:55;5.30;;;3.07;;
6388;SDS011;3227;42.654;23.360;2024-01-30T04:47:22;6.47;;;3.40;;
6388;SDS011;3227;42.654;23.360;2024-01-30T04:49:49;5.73;;;3.50;;
6388;SDS011;3227;42.654;23.360;2024-01-30T04:52:16;9.67;;;3.63;;
6388;SDS011;3227;42.654;23.360;2024-01-30T04:54:43;7.27;;;4.10;;
6388;SDS011;3227;42.654;23.360;2024-01-30T04:57:11;6.83;;;3.50;;
6388;SDS011;3227;42.654;23.360;2024-01-30T04:59:39;8.43;;;3.83;;
6388;SDS011;3227;42.654;23.360;2024-01-30T05:02:06;5.63;;;3.43;;
6388;SDS011;3227;42.654;23.360;2024-01-30T05:04:33;6.73;;;3.77;;
6388;SDS011;3227;42.654;23.360;2024-01-30T05:07:00;7.63;;;4.00;;
6388;SDS011;3227;42.654;23.360;2024-01-30T05:09:26;11.07;;;4.83;;
6388;SDS011;3227;42.654;23.360;2024-01-30T05:11:53;7.97;;;4.67;;
6388;SDS011;3227;42.654;23.360;2024-01-30T05:14:21;8.70;;;4.80;;
6388;SDS011;3227;42.654;23.360;2024-01-30T05:16:48;8.37;;;4.80;;
6388;SDS011;3227;42.654;23.360;2024-01-30T05:19:15;14.80;;;6.83;;
6388;SDS011;3227;42.654;23.360;2024-01-30T05:21:42;9.13;;;5.07;;
6388;SDS011;3227;42.654;23.360;2024-01-30T05:24:10;8.70;;;3.87;;
6388;SDS011;3227;42.654;23.360;2024-01-30T05:26:36;7.70;;;3.53;;
6388;SDS011;3227;42.654;23.360;2024-01-30T05:29:04;8.50;;;3.63;;
6388;SDS011;3227;42.654;23.360;2024-01-30T05:31:33;9.13;;;3.90;;
6388;SDS011;3227;42.654;23.360;2024-01-30T05:34:00;7.83;;;4.53;;
6388;SDS011;3227;42.654;23.360;2024-01-30T05:36:26;7.70;;;4.23;;
6388;SDS011;3227;42.654;23.360;2024-01-30T05:38:53;8.80;;;4.10;;
6388;SDS011;3227;42.654;23.360;2024-01-30T05:41:20;6.03;;;3.40;;
6388;SDS011;3227;42.654;23.360;2024-01-30T05:43:47;8.37;;;4.30;;
6388;SDS011;3227;42.654;23.360;2024-01-30T05:46:14;14.03;;;6.67;;
6388;SDS011;3227;42.654;23.360;2024-01-30T05:48:48;14.63;;;7.07;;
6388;SDS011;3227;42.654;23.360;2024-01-30T05:51:15;9.23;;;4.50;;
6388;SDS011;3227;42.654;23.360;2024-01-30T05:53:41;10.30;;;6.10;;
6388;SDS011;3227;42.654;23.360;2024-01-30T05:56:08;11.80;;;6.43;;
6388;SDS011;3227;42.654;23.360;2024-01-30T05:58:35;22.17;;;12.20;;
6388;SDS011;3227;42.654;23.360;2024-01-30T06:01:02;19.20;;;9.03;;
6388;SDS011;3227;42.654;23.360;2024-01-30T06:03:29;12.77;;;6.47;;
6388;SDS011;3227;42.654;23.360;2024-01-30T06:05:57;12.40;;;5.07;;
6388;SDS011;3227;42.654;23.360;2024-01-30T06:08:24;13.93;;;4.80;;
6388;SDS011;3227;42.654;23.360;2024-01-30T06:10:51;12.80;;;5.33;;
6388;SDS011;3227;42.654;23.360;2024-01-30T06:13:17;9.57;;;4.60;;
6388;SDS011;3227;42.654;23.360;2024-01-30T06:15:44;11.93;;;4.90;;
6388;SDS011;3227;42.654;23.360;2024-01-30T06:18:11;8.53;;;4.60;;
6388;SDS011;3227;42.654;23.360;2024-01-30T06:20:38;11.33;;;5.27;;
6388;SDS011;3227;42.654;23.360;2024-01-30T06:23:06;9.10;;;5.10;;
6388;SDS011;3227;42.654;23.360;2024-01-30T06:25:33;17.03;;;8.00;;
6388;SDS011;3227;42.654;23.360;2024-01-30T06:28:00;18.93;;;6.87;;
6388;SDS011;3227;42.654;23.360;2024-01-30T06:30:26;16.27;;;6.60;;
6388;SDS011;3227;42.654;23.360;2024-01-30T06:32:53;13.03;;;5.60;;
6388;SDS011;3227;42.654;23.360;2024-01-30T06:35:20;13.67;;;5.50;;
6388;SDS011;3227;42.654;23.360;2024-01-30T06:37:47;9.23;;;5.00;;
6388;SDS011;3227;42.654;23.360;2024-01-30T06:40:15;8.97;;;4.60;;
6388;SDS011;3227;42.654;23.360;2024-01-30T06:42:42;11.53;;;4.70;;
6388;SDS011;3227;42.654;23.360;2024-01-30T06:45:09;11.00;;;5.63;;
6388;SDS011;3227;42.654;23.360;2024-01-30T06:47:35;11.17;;;5.10;;
6388;SDS011;3227;42.654;23.360;2024-01-30T06:50:04;10.43;;;5.90;;
6388;SDS011;3227;42.654;23.360;2024-01-30T06:52:31;11.67;;;5.37;;
6388;SDS011;3227;42.654;23.360;2024-01-30T06:54:58;8.73;;;5.33;;
6388;SDS011;3227;42.654;23.360;2024-01-30T06:57:26;10.50;;;5.70;;
6388;SDS011;3227;42.654;23.360;2024-01-30T06:59:55;13.07;;;5.23;;
6388;SDS011;3227;42.654;23.360;2024-01-30T07:02:22;8.43;;;4.53;;
6388;SDS011;3227;42.654;23.360;2024-01-30T07:04:49;8.33;;;4.33;;
6388;SDS011;3227;42.654;23.360;2024-01-30T07:07:15;7.93;;;4.30;;
6388;SDS011;3227;42.654;23.360;2024-01-30T07:09:42;8.23;;;4.47;;
6388;SDS011;3227;42.654;23.360;2024-01-30T07:12:09;8.00;;;4.77;;
6388;SDS011;3227;42.654;23.360;2024-01-30T07:14:37;9.13;;;4.80;;
6388;SDS011;3227;42.654;23.360;2024-01-30T07:17:04;7.07;;;3.70;;
6388;SDS011;3227;42.654;23.360;2024-01-30T07:19:32;7.80;;;3.50;;
6388;SDS011;3227;42.654;23.360;2024-01-30T07:22:00;7.90;;;3.10;;
6388;SDS011;3227;42.654;23.360;2024-01-30T07:24:26;7.30;;;3.40;;
6388;SDS011;3227;42.654;23.360;2024-01-30T07:26:53;5.57;;;3.30;;
6388;SDS011;3227;42.654;23.360;2024-01-30T07:29:20;7.23;;;3.13;;
6388;SDS011;3227;42.654;23.360;2024-01-30T07:31:48;7.43;;;2.77;;
6388;SDS011;3227;42.654;23.360;2024-01-30T07:34:15;6.33;;;3.60;;
6388;SDS011;3227;42.654;23.360;2024-01-30T07:36:42;5.27;;;2.80;;
6388;SDS011;3227;42.654;23.360;2024-01-30T07:39:09;5.60;;;3.10;;
6388;SDS011;3227;42.654;23.360;2024-01-30T07:41:36;5.97;;;2.90;;
6388;SDS011;3227;42.654;23.360;2024-01-30T07:44:03;5.13;;;2.67;;
6388;SDS011;3227;42.654;23.360;2024-01-30T07:46:30;5.00;;;2.90;;
6388;SDS011;3227;42.654;23.360;2024-01-30T07:48:58;6.60;;;2.60;;
6388;SDS011;3227;42.654;23.360;2024-01-30T07:51:25;5.17;;;2.87;;
6388;SDS011;3227;42.654;23.360;2024-01-30T07:53:53;5.40;;;2.73;;
6388;SDS011;3227;42.654;23.360;2024-01-30T07:56:20;4.67;;;2.80;;
6388;SDS011;3227;42.654;23.360;2024-01-30T07:58:47;4.67;;;2.80;;
6388;SDS011;3227;42.654;23.360;2024-01-30T08:01:14;4.50;;;2.50;;
6388;SDS011;3227;42.654;23.360;2024-01-30T08:03:41;5.03;;;2.90;;
6388;SDS011;3227;42.654;23.360;2024-01-30T08:06:09;4.30;;;2.60;;
6388;SDS011;3227;42.654;23.360;2024-01-30T08:08:36;5.13;;;2.80;;
6388;SDS011;3227;42.654;23.360;2024-01-30T08:11:03;6.93;;;2.73;;
6388;SDS011;3227;42.654;23.360;2024-01-30T08:13:30;4.90;;;2.47;;
6388;SDS011;3227;42.654;23.360;2024-01-30T08:15:57;5.90;;;3.13;;
6388;SDS011;3227;42.654;23.360;2024-01-30T08:18:24;6.53;;;3.00;;
6388;SDS011;3227;42.654;23.360;2024-01-30T08:20:51;6.97;;;3.47;;
6388;SDS011;3227;42.654;23.360;2024-01-30T08:23:19;6.33;;;3.37;;
6388;SDS011;3227;42.654;23.360;2024-01-30T08:25:47;6.68;;;3.58;;
6388;SDS011;3227;42.654;23.360;2024-01-30T08:28:14;5.67;;;3.03;;
6388;SDS011;3227;42.654;23.360;2024-01-30T08:30:41;5.57;;;3.30;;
6388;SDS011;3227;42.654;23.360;2024-01-30T08:33:07;7.10;;;3.40;;
6388;SDS011;3227;42.654;23.360;2024-01-30T08:35:35;6.20;;;3.00;;
6388;SDS011;3227;42.654;23.360;2024-01-30T08:38:01;4.60;;;2.90;;
6388;SDS011;3227;42.654;23.360;2024-01-30T08:40:30;9.30;;;3.37;;
6388;SDS011;3227;42.654;23.360;2024-01-30T08:42:57;6.43;;;3.23;;
6388;SDS011;3227;42.654;23.360;2024-01-30T08:45:24;5.80;;;3.20;;
6388;SDS011;3227;42.654;23.360;2024-01-30T08:47:50;6.90;;;3.40;;
6388;SDS011;3227;42.654;23.360;2024-01-30T08:50:17;7.30;;;3.60;;
6388;SDS011;3227;42.654;23.360;2024-01-30T08:52:44;5.83;;;3.27;;
6388;SDS011;3227;42.654;23.360;2024-01-30T08:55:11;7.37;;;3.80;;
6388;SDS011;3227;42.654;23.360;2024-01-30T08:57:39;7.20;;;3.47;;
6388;SDS011;3227;42.654;23.360;2024-01-30T09:00:06;7.80;;;3.43;;
6388;SDS011;3227;42.654;23.360;2024-01-30T09:02:35;6.77;;;3.50;;
6388;SDS011;3227;42.654;23.360;2024-01-30T09:05:02;6.63;;;3.60;;
6388;SDS011;3227;42.654;23.360;2024-01-30T09:07:29;7.83;;;3.83;;
6388;SDS011;3227;42.654;23.360;2024-01-30T09:09:55;6.27;;;3.47;;
6388;SDS011;3227;42.654;23.360;2024-01-30T09:12:22;8.63;;;4.30;;
6388;SDS011;3227;42.654;23.360;2024-01-30T09:14:50;9.70;;;4.70;;
6388;SDS011;3227;42.654;23.360;2024-01-30T09:17:17;9.35;;;4.35;;
6388;SDS011;3227;42.654;23.360;2024-01-30T09:19:45;8.32;;;4.72;;
6388;SDS011;3227;42.654;23.360;2024-01-30T09:22:12;7.63;;;4.50;;
6388;SDS011;3227;42.654;23.360;2024-01-30T09:24:39;8.48;;;4.55;;
6388;SDS011;3227;42.654;23.360;2024-01-30T09:27:06;12.93;;;4.43;;
6388;SDS011;3227;42.654;23.360;2024-01-30T09:29:33;7.67;;;4.10;;
6388;SDS011;3227;42.654;23.360;2024-01-30T09:32:03;9.30;;;4.57;;
6388;SDS011;3227;42.654;23.360;2024-01-30T09:34:30;7.90;;;3.77;;
6388;SDS011;3227;42.654;23.360;2024-01-30T09:36:57;8.18;;;3.95;;
6388;SDS011;3227;42.654;23.360;2024-01-30T09:39:24;6.87;;;4.07;;
6388;SDS011;3227;42.654;23.360;2024-01-30T09:41:55;8.00;;;4.20;;
6388;SDS011;3227;42.654;23.360;2024-01-30T09:44:28;8.10;;;4.37;;
6388;SDS011;3227;42.654;23.360;2024-01-30T09:46:55;8.10;;;4.03;;
6388;SDS011;3227;42.654;23.360;2024-01-30T09:49:25;6.67;;;3.97;;
6388;SDS011;3227;42.654;23.360;2024-01-30T09:51:52;8.35;;;4.30;;
6388;SDS011;3227;42.654;23.360;2024-01-30T09:54:20;6.93;;;4.00;;
6388;SDS011;3227;42.654;23.360;2024-01-30T09:56:48;7.53;;;3.90;;
6388;SDS011;3227;42.654;23.360;2024-01-30T09:59:15;6.17;;;3.50;;
6388;SDS011;3227;42.654;23.360;2024-01-30T10:01:42;7.47;;;3.90;;
6388;SDS011;3227;42.654;23.360;2024-01-30T10:04:09;6.22;;;3.75;;
6388;SDS011;3227;42.654;23.360;2024-01-30T10:06:38;5.70;;;3.03;;
6388;SDS011;3227;42.654;23.360;2024-01-30T10:09:06;8.00;;;3.95;;
6388;SDS011;3227;42.654;23.360;2024-01-30T10:11:34;7.50;;;3.90;;
6388;SDS011;3227;42.654;23.360;2024-01-30T10:14:01;7.07;;;3.67;;
6388;SDS011;3227;42.654;23.360;2024-01-30T10:16:28;6.97;;;3.95;;
6388;SDS011;3227;42.654;23.360;2024-01-30T10:18:55;7.45;;;4.10;;
6388;SDS011;3227;42.654;23.360;2024-01-30T10:21:22;7.35;;;4.10;;
6388;SDS011;3227;42.654;23.360;2024-01-30T10:23:51;8.53;;;3.87;;
6388;SDS011;3227;42.654;23.360;2024-01-30T10:26:18;6.57;;;3.63;;
6388;SDS011;3227;42.654;23.360;2024-01-30T10:28:45;5.20;;;3.30;;
6388;SDS011;3227;42.654;23.360;2024-01-30T10:31:16;7.53;;;3.92;;
6388;SDS011;3227;42.654;23.360;2024-01-30T10:33:43;8.07;;;3.80;;
6388;SDS011;3227;42.654;23.360;2024-01-30T10:36:10;7.03;;;3.90;;
6388;SDS011;3227;42.654;23.360;2024-01-30T10:38:42;7.63;;;3.27;;
6388;SDS011;3227;42.654;23.360;2024-01-30T10:41:13;7.00;;;3.57;;
6388;SDS011;3227;42.654;23.360;2024-01-30T10:43:47;6.53;;;3.50;;
6388;SDS011;3227;42.654;23.360;2024-01-30T10:46:22;6.10;;;3.67;;
6388;SDS011;3227;42.654;23.360;2024-01-30T10:48:58;6.20;;;3.13;;
6388;SDS011;3227;42.654;23.360;2024-01-30T10:51:25;6.67;;;3.27;;
6388;SDS011;3227;42.654;23.360;2024-01-30T10:53:53;6.13;;;3.23;;
6388;SDS011;3227;42.654;23.360;2024-01-30T10:56:23;5.80;;;3.57;;
6388;SDS011;3227;42.654;23.360;2024-01-30T10:58:50;5.43;;;3.10;;
6388;SDS011;3227;42.654;23.360;2024-01-30T11:01:17;5.60;;;3.00;;
6388;SDS011;3227;42.654;23.360;2024-01-30T11:03:45;4.90;;;2.97;;
6388;SDS011;3227;42.654;23.360;2024-01-30T11:06:12;5.63;;;3.20;;
6388;SDS011;3227;42.654;23.360;2024-01-30T11:08:39;5.43;;;3.30;;
6388;SDS011;3227;42.654;23.360;2024-01-30T11:11:08;5.80;;;2.90;;
6388;SDS011;3227;42.654;23.360;2024-01-30T11:13:37;5.00;;;2.67;;
6388;SDS011;3227;42.654;23.360;2024-01-30T11:16:04;5.27;;;2.90;;
6388;SDS011;3227;42.654;23.360;2024-01-30T11:18:32;6.03;;;3.07;;
6388;SDS011;3227;42.654;23.360;2024-01-30T11:20:59;5.40;;;2.90;;
6388;SDS011;3227;42.654;23.360;2024-01-30T11:23:33;4.10;;;2.73;;
6388;SDS011;3227;42.654;23.360;2024-01-30T11:26:01;4.43;;;2.90;;
6388;SDS011;3227;42.654;23.360;2024-01-30T11:28:31;4.30;;;2.97;;
6388;SDS011;3227;42.654;23.360;2024-01-30T11:31:04;6.20;;;3.17;;
6388;SDS011;3227;42.654;23.360;2024-01-30T11:33:32;5.97;;;3.20;;
6388;SDS011;3227;42.654;23.360;2024-01-30T11:35:59;7.30;;;3.17;;
6388;SDS011;3227;42.654;23.360;2024-01-30T11:38:27;5.10;;;2.90;;
6388;SDS011;3227;42.654;23.360;2024-01-30T11:40:54;5.93;;;3.20;;
6388;SDS011;3227;42.654;23.360;2024-01-30T11:43:22;5.23;;;2.87;;
6388;SDS011;3227;42.654;23.360;2024-01-30T11:45:49;4.97;;;2.90;;
6388;SDS011;3227;42.654;23.360;2024-01-30T11:48:18;4.73;;;2.90;;
6388;SDS011;3227;42.654;23.360;2024-01-30T11:50:45;7.80;;;3.30;;
6388;SDS011;3227;42.654;23.360;2024-01-30T11:53:13;5.00;;;2.87;;
6388;SDS011;3227;42.654;23.360;2024-01-30T11:55:40;6.00;;;3.10;;
6388;SDS011;3227;42.654;23.360;2024-01-30T11:58:06;6.63;;;2.87;;
6388;SDS011;3227;42.654;23.360;2024-01-30T12:00:33;6.37;;;3.20;;
6388;SDS011;3227;42.654;23.360;2024-01-30T12:03:00;6.53;;;2.90;;
6388;SDS011;3227;42.654;23.360;2024-01-30T12:05:29;4.87;;;2.90;;
6388;SDS011;3227;42.654;23.360;2024-01-30T12:07:56;9.23;;;3.33;;
6388;SDS011;3227;42.654;23.360;2024-01-30T12:10:24;5.03;;;3.03;;
6388;SDS011;3227;42.654;23.360;2024-01-30T12:12:51;4.83;;;2.70;;
6388;SDS011;3227;42.654;23.360;2024-01-30T12:15:18;6.90;;;3.70;;
6388;SDS011;3227;42.654;23.360;2024-01-30T12:17:47;7.27;;;3.77;;
6388;SDS011;3227;42.654;23.360;2024-01-30T12:20:15;7.15;;;3.53;;
6388;SDS011;3227;42.654;23.360;2024-01-30T12:22:46;5.10;;;3.00;;
6388;SDS011;3227;42.654;23.360;2024-01-30T12:25:13;7.40;;;3.80;;
6388;SDS011;3227;42.654;23.360;2024-01-30T12:27:42;6.15;;;3.33;;
6388;SDS011;3227;42.654;23.360;2024-01-30T12:30:10;10.23;;;3.97;;
6388;SDS011;3227;42.654;23.360;2024-01-30T12:32:39;6.40;;;3.72;;
6388;SDS011;3227;42.654;23.360;2024-01-30T12:35:08;6.67;;;3.37;;
6388;SDS011;3227;42.654;23.360;2024-01-30T12:37:36;6.88;;;3.67;;
6388;SDS011;3227;42.654;23.360;2024-01-30T12:40:05;7.88;;;3.50;;
6388;SDS011;3227;42.654;23.360;2024-01-30T12:42:35;5.00;;;2.80;;
6388;SDS011;3227;42.654;23.360;2024-01-30T12:45:03;10.35;;;3.58;;
6388;SDS011;3227;42.654;23.360;2024-01-30T12:47:33;6.22;;;3.70;;
6388;SDS011;3227;42.654;23.360;2024-01-30T12:50:00;7.40;;;3.75;;
6388;SDS011;3227;42.654;23.360;2024-01-30T12:52:27;7.63;;;3.27;;
6388;SDS011;3227;42.654;23.360;2024-01-30T12:54:53;7.37;;;3.70;;
6388;SDS011;3227;42.654;23.360;2024-01-30T12:57:22;7.07;;;3.95;;
6388;SDS011;3227;42.654;23.360;2024-01-30T12:59:49;6.50;;;3.67;;
6388;SDS011;3227;42.654;23.360;2024-01-30T13:02:16;7.10;;;3.27;;
6388;SDS011;3227;42.654;23.360;2024-01-30T13:04:43;7.87;;;4.03;;
6388;SDS011;3227;42.654;23.360;2024-01-30T13:07:10;5.93;;;3.33;;
6388;SDS011;3227;42.654;23.360;2024-01-30T13:09:37;5.10;;;2.70;;
6388;SDS011;3227;42.654;23.360;2024-01-30T13:12:04;7.60;;;3.30;;
6388;SDS011;3227;42.654;23.360;2024-01-30T13:14:33;5.80;;;3.27;;
6388;SDS011;3227;42.654;23.360;2024-01-30T13:17:00;5.97;;;3.20;;
6388;SDS011;3227;42.654;23.360;2024-01-30T13:19:26;10.20;;;4.80;;
6388;SDS011;3227;42.654;23.360;2024-01-30T13:21:53;7.27;;;3.83;;
6388;SDS011;3227;42.654;23.360;2024-01-30T13:24:20;7.30;;;3.92;;
6388;SDS011;3227;42.654;23.360;2024-01-30T13:26:47;8.20;;;3.47;;
6388;SDS011;3227;42.654;23.360;2024-01-30T13:29:14;5.17;;;3.10;;
6388;SDS011;3227;42.654;23.360;2024-01-30T13:31:42;6.40;;;3.67;;
6388;SDS011;3227;42.654;23.360;2024-01-30T13:34:12;7.37;;;3.43;;
6388;SDS011;3227;42.654;23.360;2024-01-30T13:36:39;10.77;;;3.37;;
6388;SDS011;3227;42.654;23.360;2024-01-30T13:39:07;5.30;;;2.90;;
6388;SDS011;3227;42.654;23.360;2024-01-30T13:41:35;8.03;;;4.00;;
6388;SDS011;3227;42.654;23.360;2024-01-30T13:44:03;6.50;;;3.20;;
6388;SDS011;3227;42.654;23.360;2024-01-30T13:46:30;5.87;;;3.40;;
6388;SDS011;3227;42.654;23.360;2024-01-30T13:48:58;6.45;;;3.60;;
6388;SDS011;3227;42.654;23.360;2024-01-30T13:51:25;6.83;;;3.47;;
6388;SDS011;3227;42.654;23.360;2024-01-30T13:53:52;8.30;;;3.97;;
6388;SDS011;3227;42.654;23.360;2024-01-30T13:56:18;8.25;;;4.68;;
6388;SDS011;3227;42.654;23.360;2024-01-30T13:58:45;8.35;;;3.60;;
6388;SDS011;3227;42.654;23.360;2024-01-30T14:01:12;7.03;;;3.73;;
6388;SDS011;3227;42.654;23.360;2024-01-30T14:03:39;6.80;;;3.50;;
6388;SDS011;3227;42.654;23.360;2024-01-30T14:06:07;7.57;;;4.03;;
6388;SDS011;3227;42.654;23.360;2024-01-30T14:08:34;5.00;;;3.20;;
6388;SDS011;3227;42.654;23.360;2024-01-30T14:11:01;6.57;;;3.40;;
6388;SDS011;3227;42.654;23.360;2024-01-30T14:13:28;7.10;;;3.53;;
6388;SDS011;3227;42.654;23.360;2024-01-30T14:15:56;5.37;;;3.10;;
6388;SDS011;3227;42.654;23.360;2024-01-30T14:18:23;6.87;;;3.60;;
6388;SDS011;3227;42.654;23.360;2024-01-30T14:20:50;5.43;;;3.30;;
6388;SDS011;3227;42.654;23.360;2024-01-30T14:23:19;8.02;;;4.40;;
6388;SDS011;3227;42.654;23.360;2024-01-30T14:25:46;9.70;;;4.45;;
6388;SDS011;3227;42.654;23.360;2024-01-30T14:28:13;7.00;;;3.97;;
6388;SDS011;3227;42.654;23.360;2024-01-30T14:30:40;7.77;;;3.73;;
6388;SDS011;3227;42.654;23.360;2024-01-30T14:33:12;7.40;;;3.93;;
6388;SDS011;3227;42.654;23.360;2024-01-30T14:35:39;8.75;;;4.30;;
6388;SDS011;3227;42.654;23.360;2024-01-30T14:38:06;7.07;;;3.90;;
6388;SDS011;3227;42.654;23.360;2024-01-30T14:40:34;8.00;;;4.37;;
6388;SDS011;3227;42.654;23.360;2024-01-30T14:43:01;7.28;;;4.00;;
6388;SDS011;3227;42.654;23.360;2024-01-30T14:45:28;6.90;;;4.07;;
6388;SDS011;3227;42.654;23.360;2024-01-30T14:47:56;7.20;;;4.00;;
6388;SDS011;3227;42.654;23.360;2024-01-30T14:50:24;9.13;;;4.80;;
6388;SDS011;3227;42.654;23.360;2024-01-30T14:52:52;8.50;;;4.53;;
6388;SDS011;3227;42.654;23.360;2024-01-30T14:55:18;8.30;;;4.70;;
6388;SDS011;3227;42.654;23.360;2024-01-30T14:57:47;8.07;;;4.30;;
6388;SDS011;3227;42.654;23.360;2024-01-30T15:00:14;7.40;;;3.77;;